Station History

Weather Underground - logo

Station Historical Data
 
Daily Summary for February 22, 2019 Units:  English    Metric   Both
« Previous Day
Next Day »
Daily Weekly Monthly Yearly Custom
  Current: High: Low: Average:
Temperature: 46.7 °F 46.7 °F 31.8 °F 36.7 °F
Dew Point: 37.4 °F 37.6 °F 29.7 °F 33.8 °F
Humidity: 70 % 95 % 70 % 89 %
Wind Speed: 1.0 mph 3.5 mph 0.0 mph 0.2 mph
Wind Gust: 0.0 mph 1.1 mph - -
Wind:ENE - - ESE
Pressure: 30.12 in 30.12 in 29.89 in -
Precipitation: 0.00 in      
Historical Graphs
 
 
Tabular Data for February 22, 2019
Time Temperature Dew Point Pressure Wind Wind Speed Wind Gust Humidity Rainfall Rate (Hourly)
00:04 39.3 °F 36.0 °F 29.89 in Calm     88 % 0.00 in
00:09 39.1 °F 35.8 °F 29.89 in Calm     88 % 0.00 in
00:14 38.9 °F 35.6 °F 29.89 in Calm     88 % 0.00 in
00:19 38.5 °F 35.3 °F 29.89 in Calm     88 % 0.00 in
00:24 38.2 °F 35.2 °F 29.90 in Calm     89 % 0.00 in
00:29 37.9 °F 34.9 °F 29.90 in Calm     89 % 0.00 in
00:34 37.8 °F 34.8 °F 29.90 in Calm     89 % 0.00 in
00:39 37.6 °F 34.9 °F 29.91 in Calm     90 % 0.00 in
00:44 37.4 °F 34.7 °F 29.91 in Calm     90 % 0.00 in
00:49 37.5 °F 34.8 °F 29.91 in Calm     90 % 0.00 in
00:54 37.5 °F 34.8 °F 29.91 in Calm     90 % 0.00 in
00:59 37.5 °F 35.1 °F 29.91 in Calm     91 % 0.00 in
01:04 37.5 °F 34.8 °F 29.92 in Calm     90 % 0.00 in
01:09 37.5 °F 34.8 °F 29.92 in Calm     90 % 0.00 in
01:14 37.7 °F 35.0 °F 29.92 in Calm     90 % 0.00 in
01:19 37.9 °F 35.2 °F 29.92 in Calm     90 % 0.00 in
01:24 38.3 °F 35.3 °F 29.92 in Calm     89 % 0.00 in
01:29 38.7 °F 35.5 °F 29.93 in Calm     88 % 0.00 in
01:34 38.5 °F 35.3 °F 29.92 in Calm     88 % 0.00 in
01:39 38.4 °F 35.2 °F 29.92 in Calm     88 % 0.00 in
01:44 38.3 °F 35.1 °F 29.93 in Calm     88 % 0.00 in
01:49 38.0 °F 34.8 °F 29.93 in Calm     88 % 0.00 in
01:54 37.9 °F 35.2 °F 29.93 in Calm     90 % 0.00 in
01:59 37.8 °F 35.1 °F 29.93 in Calm     90 % 0.00 in
02:04 37.8 °F 35.1 °F 29.94 in Calm     90 % 0.00 in
02:09 37.7 °F 35.3 °F 29.94 in Calm     91 % 0.00 in
02:14 37.7 °F 35.3 °F 29.93 in Calm     91 % 0.00 in
02:19 37.6 °F 35.2 °F 29.94 in Calm     91 % 0.00 in
02:24 37.4 °F 35.0 °F 29.94 in Calm     91 % 0.00 in
02:29 37.2 °F 34.8 °F 29.94 in Calm     91 % 0.00 in
02:34 36.9 °F 34.5 °F 29.94 in Calm     91 % 0.00 in
02:39 36.7 °F 34.3 °F 29.94 in Calm     91 % 0.00 in
02:44 36.5 °F 34.1 °F 29.94 in Calm     91 % 0.00 in
02:49 36.3 °F 33.9 °F 29.95 in Calm     91 % 0.00 in
02:54 36.0 °F 33.6 °F 29.94 in Calm     91 % 0.00 in
02:59 35.8 °F 33.7 °F 29.95 in Calm     92 % 0.00 in
03:04 35.8 °F 33.7 °F 29.95 in Calm     92 % 0.00 in
03:09 35.8 °F 33.7 °F 29.95 in Calm     92 % 0.00 in
03:14 35.7 °F 33.9 °F 29.95 in Calm     93 % 0.00 in
03:19 35.5 °F 33.4 °F 29.95 in Calm     92 % 0.00 in
03:24 35.4 °F 33.3 °F 29.95 in Calm     92 % 0.00 in
03:29 35.2 °F 33.1 °F 29.96 in Calm     92 % 0.00 in
03:34 35.0 °F 32.9 °F 29.96 in Calm     92 % 0.00 in
03:39 35.3 °F 33.5 °F 29.96 in Calm     93 % 0.00 in
03:44 35.5 °F 33.7 °F 29.96 in Calm     93 % 0.00 in
03:49 35.4 °F 33.6 °F 29.96 in Calm     93 % 0.00 in
03:54 35.4 °F 33.6 °F 29.96 in Calm     93 % 0.00 in
03:59 35.7 °F 33.9 °F 29.97 in East 1.2 mph   93 % 0.00 in
04:04 35.8 °F 34.0 °F 29.97 in Calm     93 % 0.00 in
04:09 35.9 °F 34.1 °F 29.97 in Calm     93 % 0.00 in
04:14 35.9 °F 33.8 °F 29.97 in Calm     92 % 0.00 in
04:19 35.9 °F 33.8 °F 29.98 in Calm   0.1 mph 92 % 0.00 in
04:24 36.0 °F 33.9 °F 29.98 in Calm     92 % 0.00 in
04:29 36.1 °F 34.0 °F 29.98 in Calm     92 % 0.00 in
04:34 36.0 °F 33.6 °F 29.98 in Calm     91 % 0.00 in
04:39 35.7 °F 33.3 °F 29.99 in Calm     91 % 0.00 in
04:44 35.4 °F 33.0 °F 29.99 in Calm     91 % 0.00 in
04:49 35.4 °F 33.0 °F 29.99 in Calm     91 % 0.00 in
04:54 35.8 °F 33.4 °F 30.00 in East 1.2 mph   91 % 0.00 in
04:59 36.0 °F 33.6 °F 30.00 in Calm     91 % 0.00 in
05:04 35.6 °F 32.7 °F 30.00 in Calm     89 % 0.00 in
05:09 34.6 °F 31.4 °F 30.00 in Calm     88 % 0.00 in
05:14 33.9 °F 31.0 °F 30.01 in Calm     89 % 0.00 in
05:19 33.5 °F 30.9 °F 30.01 in Calm     90 % 0.00 in
05:24 33.2 °F 30.6 °F 30.01 in Calm     90 % 0.00 in
05:29 33.0 °F 30.7 °F 30.01 in Calm     91 % 0.00 in
05:34 33.0 °F 30.9 °F 30.01 in Calm     92 % 0.00 in
05:39 33.1 °F 31.0 °F 30.02 in Calm     92 % 0.00 in
05:44 33.2 °F 31.1 °F 30.02 in Calm     92 % 0.00 in
05:49 33.4 °F 31.6 °F 30.02 in Calm     93 % 0.00 in
05:54 33.2 °F 31.1 °F 30.02 in Calm     92 % 0.00 in
05:59 33.1 °F 31.0 °F 30.03 in Calm     92 % 0.00 in
06:04 33.1 °F 31.3 °F 30.03 in Calm     93 % 0.00 in
06:09 33.4 °F 31.6 °F 30.03 in East 1.2 mph   93 % 0.00 in
06:14 33.6 °F 31.8 °F 30.03 in Calm     93 % 0.00 in
06:19 33.5 °F 31.7 °F 30.04 in Calm     93 % 0.00 in
06:24 33.3 °F 31.5 °F 30.03 in Calm     93 % 0.00 in
06:29 32.9 °F 30.8 °F 30.04 in Calm     92 % 0.00 in
06:34 32.7 °F 30.6 °F 30.04 in Calm     92 % 0.00 in
06:39 32.1 °F 30.0 °F 30.04 in Calm     92 % 0.00 in
06:44 31.8 °F 29.7 °F 30.05 in Calm     92 % 0.00 in
06:49 32.0 °F 30.2 °F 30.05 in Calm     93 % 0.00 in
06:54 32.1 °F 30.3 °F 30.05 in Calm     93 % 0.00 in
06:59 32.1 °F 30.3 °F 30.06 in Calm     93 % 0.00 in
07:04 32.1 °F 30.3 °F 30.06 in Calm     93 % 0.00 in
07:09 32.4 °F 30.6 °F 30.07 in Calm     93 % 0.00 in
07:14 32.6 °F 31.1 °F 30.07 in Calm     94 % 0.00 in
07:19 32.7 °F 31.2 °F 30.07 in Calm     94 % 0.00 in
07:24 33.0 °F 31.5 °F 30.07 in Calm     94 % 0.00 in
07:29 33.5 °F 32.0 °F 30.08 in East 1.2 mph   94 % 0.00 in
07:34 34.0 °F 32.5 °F 30.08 in Calm     94 % 0.00 in
07:39 34.5 °F 33.0 °F 30.09 in Calm     94 % 0.00 in
07:44 36.2 °F 34.9 °F 30.09 in Calm     95 % 0.00 in
07:49 37.4 °F 35.8 °F 30.09 in Calm     94 % 0.00 in
07:54 38.1 °F 35.7 °F 30.10 in Calm     91 % 0.00 in
07:59 39.1 °F 36.1 °F 30.10 in ESE 1.2 mph   89 % 0.00 in
08:04 39.8 °F 36.5 °F 30.10 in Calm     88 % 0.00 in
08:09 40.5 °F 36.0 °F 30.11 in Calm     84 % 0.00 in
08:14 41.3 °F 36.5 °F 30.11 in Calm     83 % 0.00 in
08:19 42.0 °F 36.3 °F 30.11 in ESE 1.2 mph 0.1 mph 80 % 0.00 in
08:24 42.6 °F 36.2 °F 30.11 in SSW 1.2 mph   78 % 0.00 in
08:29 42.5 °F 35.8 °F 30.11 in Calm     77 % 0.00 in
08:34 42.8 °F 36.1 °F 30.11 in SSE 1.2 mph 0.3 mph 77 % 0.00 in
08:39 43.1 °F 36.4 °F 30.11 in ESE 1.2 mph 0.8 mph 77 % 0.00 in
08:44 43.4 °F 37.0 °F 30.12 in Calm   0.5 mph 78 % 0.00 in
08:49 43.8 °F 36.4 °F 30.12 in ESE 3.5 mph 1.1 mph 75 % 0.00 in
08:55 44.5 °F 37.1 °F 30.12 in NE 1.2 mph 0.2 mph 75 % 0.00 in
08:59 45.0 °F 36.9 °F 30.12 in ENE 2.3 mph 0.2 mph 73 % 0.00 in
09:04 45.4 °F 37.6 °F 30.12 in East 1.2 mph   74 % 0.00 in
09:09 46.0 °F 37.1 °F 30.12 in South 3.5 mph   71 % 0.00 in
09:14 46.7 °F 37.4 °F 30.12 in ENE 1.0 mph   70 % 0.00 in
Park Place, Exeter, Tulare County, California, USA
Compliments of Weather Underground - 1.75 mb